Time;durP1;ratioP1;P1;durP2;ratioP2;P2;SDS_P1;SDS_P2;PMS_P1;PMS_P2;Temp;Humidity;BMP_temperature;BMP_pressure;BME280_temperature;BME280_humidity;BME280_pressure;Samples;Min_cycle;Max_cycle;Signal;HPM_P1;HPM_P2
2021/07/24 00:01:16;;;;;;;25.82;4.42;;;;;;;13.92;97.98;100622.49;1696070;83;21469;-38
2021/07/24 00:03:42;;;;;;;58.10;6.33;;;;;;;13.89;97.94;100623.02;1696206;84;21466;-39
2021/07/24 00:06:09;;;;;;;28.10;4.12;;;;;;;13.87;98.32;100617.84;1695950;84;20992;-37
2021/07/24 00:08:36;;;;;;;31.23;4.37;;;;;;;13.87;98.49;100615.25;1696293;84;21578;-38
2021/07/24 00:11:05;;;;;;;38.98;3.92;;;;;;;13.85;98.41;100613.14;1695980;84;20965;-37
2021/07/24 00:13:36;;;;;;;27.02;3.90;;;;;;;13.83;98.38;100619.31;1695873;83;21608;-38
2021/07/24 00:16:04;;;;;;;34.55;5.25;;;;;;;13.81;98.49;100619.80;1695994;84;21146;-37
2021/07/24 00:18:33;;;;;;;18.70;3.80;;;;;;;13.77;98.57;100613.83;1695894;83;20861;-38
2021/07/24 00:21:00;;;;;;;19.42;4.22;;;;;;;13.77;98.74;100625.10;1695905;84;20945;-39
2021/07/24 00:23:26;;;;;;;25.08;3.92;;;;;;;13.76;98.85;100625.97;1695868;84;21071;-38
2021/07/24 00:25:53;;;;;;;16.82;3.45;;;;;;;13.75;98.96;100622.12;1696025;84;20960;-37
2021/07/24 00:28:19;;;;;;;30.43;3.50;;;;;;;13.74;99.18;100619.96;1696036;83;21292;-38
2021/07/24 00:30:46;;;;;;;39.65;4.12;;;;;;;13.73;99.13;100626.06;1696105;84;20972;-39
2021/07/24 00:33:17;;;;;;;20.85;3.33;;;;;;;13.72;99.18;100623.52;1695393;84;21486;-39
2021/07/24 00:35:43;;;;;;;20.12;3.50;;;;;;;13.70;99.11;100622.72;1695954;84;21522;-39
2021/07/24 00:38:10;;;;;;;23.05;3.52;;;;;;;13.66;99.14;100619.34;1696014;84;20961;-39
2021/07/24 00:40:44;;;;;;;42.55;5.30;;;;;;;13.63;99.14;100627.23;1689250;84;21255;-38
2021/07/24 00:43:10;;;;;;;40.38;4.67;;;;;;;13.62;99.37;100618.56;1665735;84;21004;-38
2021/07/24 00:45:48;;;;;;;38.90;5.37;;;;;;;13.64;99.64;100625.04;1715357;83;21038;-38
2021/07/24 00:48:21;;;;;;;37.95;4.45;;;;;;;13.63;99.77;100629.38;1716841;83;21544;-38
2021/07/24 00:50:54;;;;;;;52.73;5.45;;;;;;;13.63;99.92;100623.33;1714696;83;21010;-38
2021/07/24 00:53:22;;;;;;;44.93;6.45;;;;;;;13.63;100.00;100629.38;1716973;83;21754;-38
2021/07/24 00:55:52;;;;;;;47.30;5.40;;;;;;;13.62;100.00;100624.23;1721529;83;21054;-37
2021/07/24 00:58:32;;;;;;;89.22;7.75;;;;;;;13.62;100.00;100626.37;1692898;84;21579;-38
2021/07/24 01:01:04;;;;;;;71.60;8.25;;;;;;;13.62;100.00;100622.93;1690639;84;20999;-38
2021/07/24 01:03:28;;;;;;;111.08;8.53;;;;;;;13.63;100.00;100622.03;1720862;83;21548;-39
2021/07/24 01:05:56;;;;;;;143.55;13.53;;;;;;;13.63;100.00;100623.33;1692787;84;21139;-38
2021/07/24 01:08:23;;;;;;;188.00;16.10;;;;;;;13.63;100.00;100626.77;1692860;84;21006;-39
2021/07/24 01:10:52;;;;;;;194.85;15.43;;;;;;;13.65;100.00;100621.54;1692694;84;20958;-39
2021/07/24 01:13:19;;;;;;;300.77;23.83;;;;;;;13.67;100.00;100624.11;1665564;84;20942;-38
2021/07/24 01:15:51;;;;;;;276.10;19.73;;;;;;;13.70;100.00;100626.62;1692802;84;21488;-39
2021/07/24 01:18:21;;;;;;;210.82;16.48;;;;;;;13.72;100.00;100619.62;1691547;84;21119;-39
2021/07/24 01:20:48;;;;;;;228.60;16.05;;;;;;;13.75;100.00;100622.97;1721415;83;21520;-39
2021/07/24 01:23:17;;;;;;;260.88;19.12;;;;;;;13.76;100.00;100630.34;1692886;84;21010;-38
2021/07/24 01:25:49;;;;;;;233.63;17.02;;;;;;;13.77;100.00;100625.53;1692661;84;20899;-38
2021/07/24 01:28:31;;;;;;;242.50;17.42;;;;;;;13.77;100.00;100621.63;1692934;84;21052;-39
2021/07/24 01:31:00;;;;;;;250.07;17.27;;;;;;;13.76;100.00;100620.77;1692621;83;21244;-38
2021/07/24 01:33:27;;;;;;;212.45;16.35;;;;;;;13.79;100.00;100625.91;1692852;84;20955;-39
2021/07/24 01:35:56;;;;;;;208.57;16.27;;;;;;;13.79;100.00;100627.20;1692811;84;20947;-40
2021/07/24 01:38:22;;;;;;;163.20;14.10;;;;;;;13.80;100.00;100629.34;1691379;83;20892;-39
2021/07/24 01:40:51;;;;;;;166.05;11.57;;;;;;;13.81;100.00;100628.91;1718450;83;20932;-39
2021/07/24 01:43:17;;;;;;;149.32;10.15;;;;;;;13.81;100.00;100631.52;1692678;84;21161;-39
2021/07/24 01:45:45;;;;;;;146.55;10.48;;;;;;;13.76;100.00;100628.57;1692521;84;20983;-39
2021/07/24 01:48:17;;;;;;;98.00;9.33;;;;;;;13.72;100.00;100632.16;1692853;83;20955;-39
2021/07/24 01:53:31;;;;;;;125.38;8.55;;;;;;;13.63;100.00;100629.38;1721659;82;20875;-41
2021/07/24 01:56:03;;;;;;;115.42;9.50;;;;;;;13.61;100.00;100625.12;1692722;83;21154;-40
2021/07/24 01:58:36;;;;;;;119.10;10.90;;;;;;;13.59;100.00;100623.86;1692561;83;21030;-40
2021/07/24 02:01:08;;;;;;;129.75;8.08;;;;;;;13.56;100.00;100621.81;1694248;83;20924;-37
2021/07/24 02:03:43;;;;;;;157.20;12.68;;;;;;;13.56;100.00;100619.21;1692685;84;21004;-39
2021/07/24 02:06:16;;;;;;;132.45;13.35;;;;;;;13.54;100.00;100620.54;1721443;83;21358;-38
2021/07/24 02:08:48;;;;;;;145.22;12.40;;;;;;;13.56;100.00;100620.05;1719951;83;21155;-39
2021/07/24 02:11:18;;;;;;;141.55;11.88;;;;;;;13.59;100.00;100624.32;1666543;84;20999;-39
2021/07/24 02:13:48;;;;;;;135.85;11.15;;;;;;;13.62;100.00;100626.37;1690224;84;21017;-39
2021/07/24 02:16:16;;;;;;;126.65;11.28;;;;;;;13.65;100.00;100628.04;1692765;83;20973;-40
2021/07/24 02:18:44;;;;;;;144.47;11.97;;;;;;;13.67;100.00;100624.95;1692763;84;20986;-39
2021/07/24 02:21:13;;;;;;;157.47;13.83;;;;;;;13.70;100.00;100627.92;1691967;84;21115;-39
2021/07/24 02:23:40;;;;;;;88.40;8.60;;;;;;;13.74;100.00;100631.66;1691094;84;20995;-38
2021/07/24 02:26:11;;;;;;;83.65;10.25;;;;;;;13.77;100.00;100626.41;1721494;83;20935;-38
2021/07/24 02:28:35;;;;;;;92.97;9.58;;;;;;;13.79;100.00;100631.11;1692275;84;20943;-38
2021/07/24 02:31:02;;;;;;;62.20;8.90;;;;;;;13.83;100.00;100638.82;1721485;83;20891;-41
2021/07/24 02:33:28;;;;;;;89.58;8.70;;;;;;;13.86;100.00;100634.36;1692746;83;21123;-39
2021/07/24 02:35:56;;;;;;;100.92;8.05;;;;;;;13.89;100.00;100634.73;1666846;84;21019;-39
2021/07/24 02:38:24;;;;;;;68.28;6.42;;;;;;;13.92;100.00;100638.54;1692274;84;20927;-39
2021/07/24 02:40:51;;;;;;;72.25;7.55;;;;;;;13.93;100.00;100641.11;1695085;83;20924;-38
2021/07/24 02:43:19;;;;;;;88.20;8.35;;;;;;;13.91;100.00;100642.05;1692609;84;21038;-38
2021/07/24 02:45:46;;;;;;;79.03;7.97;;;;;;;13.89;100.00;100646.01;1678229;84;21243;-38
2021/07/24 02:48:13;;;;;;;88.50;8.83;;;;;;;13.89;100.00;100643.84;1735778;82;20885;-39
2021/07/24 02:50:43;;;;;;;90.55;9.08;;;;;;;13.89;100.00;100643.41;1735191;82;20961;-38
2021/07/24 02:53:10;;;;;;;100.25;8.90;;;;;;;13.89;100.00;100646.01;1714953;82;21432;-39
2021/07/24 02:55:37;;;;;;;106.03;9.40;;;;;;;13.92;100.00;100647.65;1735975;82;21601;-38
2021/07/24 02:58:03;;;;;;;111.72;9.30;;;;;;;13.95;100.00;100642.34;1735821;82;21469;-39
2021/07/24 03:00:31;;;;;;;115.57;10.88;;;;;;;14.00;100.00;100643.53;1735895;82;21485;-39
2021/07/24 03:02:58;;;;;;;96.57;9.53;;;;;;;14.02;100.00;100648.23;1736029;82;21431;-38
2021/07/24 03:05:24;;;;;;;79.80;7.33;;;;;;;14.07;100.00;100651.11;1714905;82;21483;-39
2021/07/24 03:07:50;;;;;;;103.02;7.95;;;;;;;14.15;100.00;100652.62;1735957;82;20906;-39
2021/07/24 03:10:19;;;;;;;89.58;8.85;;;;;;;14.20;100.00;100649.42;1735858;82;20965;-39
2021/07/24 03:12:45;;;;;;;86.22;8.80;;;;;;;14.28;100.00;100650.06;1735952;82;21063;-38
2021/07/24 03:15:12;;;;;;;81.72;7.22;;;;;;;14.35;100.00;100646.36;1735763;82;21032;-37
2021/07/24 03:17:38;;;;;;;68.25;6.87;;;;;;;14.42;100.00;100644.86;1735886;82;20933;-39
2021/07/24 03:20:06;;;;;;;66.80;7.78;;;;;;;14.52;100.00;100651.47;1736154;82;21258;-39
2021/07/24 03:22:33;;;;;;;52.70;6.22;;;;;;;14.62;100.00;100654.20;1735947;82;21178;-39
2021/07/24 03:25:00;;;;;;;58.87;7.12;;;;;;;14.74;100.00;100654.72;1735788;82;20933;-39
2021/07/24 03:27:27;;;;;;;56.00;6.75;;;;;;;14.89;100.00;100650.31;1735846;82;20929;-38
2021/07/24 03:29:54;;;;;;;42.73;5.90;;;;;;;15.04;100.00;100650.72;1735954;82;20898;-38
2021/07/24 03:32:20;;;;;;;47.30;5.53;;;;;;;15.17;100.00;100646.77;1715318;82;20972;-39
2021/07/24 03:34:47;;;;;;;46.60;5.72;;;;;;;15.34;100.00;100650.55;1735947;82;21086;-39
2021/07/24 03:37:13;;;;;;;54.93;7.58;;;;;;;15.48;100.00;100647.45;1735769;82;20882;-39
2021/07/24 03:39:40;;;;;;;73.62;6.55;;;;;;;15.62;100.00;100642.56;1736207;82;20956;-40
2021/07/24 03:42:07;;;;;;;28.32;4.53;;;;;;;15.76;100.00;100643.36;1735988;82;20996;-39
2021/07/24 03:44:33;;;;;;;41.20;5.20;;;;;;;15.91;100.00;100649.83;1736059;82;20905;-40
2021/07/24 03:47:00;;;;;;;33.08;5.17;;;;;;;16.06;100.00;100648.39;1736001;82;21131;-39
2021/07/24 03:49:26;;;;;;;41.08;5.03;;;;;;;16.23;100.00;100646.86;1736195;82;20882;-38
2021/07/24 03:51:52;;;;;;;40.55;5.00;;;;;;;16.41;100.00;100648.36;1736038;82;21498;-38
2021/07/24 03:54:19;;;;;;;28.05;5.33;;;;;;;16.57;100.00;100645.55;1736060;82;21479;-39
2021/07/24 03:56:46;;;;;;;45.25;5.40;;;;;;;16.75;100.00;100641.31;1735904;82;20969;-38
2021/07/24 03:59:13;;;;;;;29.87;4.90;;;;;;;16.95;100.00;100640.47;1715010;82;21179;-38
2021/07/24 04:01:42;;;;;;;21.02;4.10;;;;;;;17.19;100.00;100640.84;1735938;82;20914;-39
2021/07/24 04:04:08;;;;;;;15.88;3.60;;;;;;;17.47;100.00;100647.01;1735835;82;20972;-40
2021/07/24 04:06:35;;;;;;;23.35;3.85;;;;;;;17.78;100.00;100640.86;1735986;82;20929;-38
2021/07/24 04:09:01;;;;;;;22.65;3.67;;;;;;;18.09;100.00;100649.94;1736027;82;20909;-41
2021/07/24 04:11:28;;;;;;;26.65;3.98;;;;;;;18.37;99.73;100639.45;1735938;82;21142;-40
2021/07/24 04:13:56;;;;;;;36.40;4.20;;;;;;;18.70;98.83;100643.13;1735963;82;20965;-40
2021/07/24 04:16:23;;;;;;;30.72;4.17;;;;;;;19.02;97.31;100644.16;1715282;82;20921;-38
2021/07/24 04:18:49;;;;;;;23.45;3.67;;;;;;;19.36;95.81;100641.58;1735956;81;21424;-39
2021/07/24 04:21:16;;;;;;;65.67;4.75;;;;;;;19.63;93.75;100638.41;1736298;82;21535;-39
2021/07/24 04:23:43;;;;;;;10.48;3.12;;;;;;;19.89;91.41;100636.98;1736273;82;21857;-39
2021/07/24 04:26:10;;;;;;;22.45;3.60;;;;;;;20.13;88.59;100637.07;1735932;81;20933;-39
2021/07/24 04:28:37;;;;;;;11.60;2.83;;;;;;;20.36;86.35;100639.25;1736258;82;20889;-38
2021/07/24 04:31:03;;;;;;;8.80;2.70;;;;;;;20.53;80.75;100636.11;1736050;82;20988;-39
2021/07/24 04:33:30;;;;;;;17.40;3.10;;;;;;;20.67;78.83;100636.16;1736036;82;21462;-39
2021/07/24 04:35:56;;;;;;;10.23;2.95;;;;;;;20.84;77.58;100638.32;1735862;82;21696;-39
2021/07/24 04:38:22;;;;;;;18.25;3.90;;;;;;;20.95;73.94;100637.66;1736103;82;20960;-39
2021/07/24 04:40:49;;;;;;;11.88;3.42;;;;;;;21.03;73.26;100641.16;1735984;81;20948;-39
2021/07/24 04:43:16;;;;;;;8.38;2.58;;;;;;;21.18;73.49;100642.88;1735954;81;20949;-38
2021/07/24 04:45:44;;;;;;;6.08;3.08;;;;;;;21.41;72.00;100641.09;1742013;81;21406;-39
2021/07/24 04:48:11;;;;;;;14.83;3.80;;;;;;;21.58;70.84;100640.05;1749970;81;21067;-39
2021/07/24 04:50:47;;;;;;;15.05;3.00;;;;;;;21.74;69.66;100644.77;1749667;82;21008;-39
2021/07/24 04:53:13;;;;;;;27.07;3.62;;;;;;;21.90;67.75;100641.19;1750062;82;20885;-39
2021/07/24 04:55:40;;;;;;;6.37;2.55;;;;;;;22.09;68.03;100640.36;1750147;82;21019;-40
2021/07/24 04:58:08;;;;;;;18.57;3.02;;;;;;;22.30;66.33;100639.92;1749942;81;20965;-39
2021/07/24 05:00:38;;;;;;;6.15;2.75;;;;;;;22.49;66.49;100647.53;1749785;81;21047;-39
2021/07/24 05:03:05;;;;;;;10.88;2.65;;;;;;;22.77;65.27;100647.01;1750205;82;21568;-39
2021/07/24 05:05:31;;;;;;;4.37;2.15;;;;;;;22.96;63.24;100651.88;1750025;82;20912;-39
2021/07/24 05:07:58;;;;;;;8.53;2.27;;;;;;;23.16;62.50;100644.41;1749886;82;21514;-38
2021/07/24 05:10:26;;;;;;;10.53;2.60;;;;;;;23.33;62.03;100647.69;1750022;82;21327;-39
2021/07/24 05:12:53;;;;;;;8.88;2.50;;;;;;;23.48;61.64;100641.34;1749867;82;21904;-39
2021/07/24 05:15:19;;;;;;;20.82;3.05;;;;;;;23.70;61.56;100640.30;1749805;82;21490;-39
2021/07/24 05:17:46;;;;;;;16.15;2.60;;;;;;;23.90;60.11;100641.53;1749952;82;20996;-39
2021/07/24 05:20:13;;;;;;;8.90;2.65;;;;;;;24.13;59.58;100638.55;1749943;82;20924;-39
2021/07/24 05:22:40;;;;;;;11.95;2.65;;;;;;;24.37;59.93;100649.11;1749887;82;20849;-39
2021/07/24 05:25:08;;;;;;;6.37;2.60;;;;;;;24.65;58.12;100642.26;1749842;82;21121;-39
2021/07/24 05:27:35;;;;;;;11.08;2.58;;;;;;;24.82;55.75;100644.98;1749931;82;20920;-39
2021/07/24 05:30:03;;;;;;;13.75;3.10;;;;;;;24.85;55.39;100646.56;1749883;82;22240;-40
2021/07/24 05:32:29;;;;;;;20.92;2.95;;;;;;;24.88;55.99;100645.00;1750075;82;22043;-39
2021/07/24 05:34:56;;;;;;;11.88;3.02;;;;;;;25.04;54.70;100651.28;1722268;82;20897;-40
2021/07/24 05:37:22;;;;;;;10.85;3.60;;;;;;;25.18;54.52;100652.40;1749878;82;21264;-39
2021/07/24 05:39:49;;;;;;;6.35;2.58;;;;;;;25.25;53.61;100648.30;1749851;82;20964;-39
2021/07/24 05:42:15;;;;;;;18.02;3.10;;;;;;;25.43;53.31;100642.54;1749868;82;20956;-39
2021/07/24 05:44:41;;;;;;;16.42;3.47;;;;;;;25.67;54.17;100642.92;1749860;82;20861;-39
2021/07/24 05:47:08;;;;;;;13.75;2.77;;;;;;;25.88;53.34;100647.44;1749845;81;21003;-39
2021/07/24 05:49:37;;;;;;;8.13;2.20;;;;;;;26.03;53.16;100648.86;1722348;82;21131;-39
2021/07/24 05:52:11;;;;;;;12.90;2.83;;;;;;;26.27;52.11;100649.66;1722204;82;20849;-40
2021/07/24 05:54:36;;;;;;;13.22;2.77;;;;;;;26.28;50.59;100653.52;1748297;82;20929;-39
2021/07/24 05:57:05;;;;;;;24.30;3.45;;;;;;;26.30;51.16;100651.58;1749599;82;20885;-39
2021/07/24 05:59:33;;;;;;;15.00;2.72;;;;;;;26.39;50.83;100654.79;1749901;82;21003;-39
2021/07/24 06:02:01;;;;;;;34.27;3.75;;;;;;;26.51;51.40;100658.23;1749789;82;21757;-39
2021/07/24 06:04:27;;;;;;;20.32;3.00;;;;;;;26.64;50.98;100657.23;1749786;82;21522;-39
2021/07/24 06:06:54;;;;;;;15.15;2.85;;;;;;;26.65;49.38;100653.61;1749950;82;20861;-39
2021/07/24 06:09:20;;;;;;;14.75;2.72;;;;;;;26.67;49.46;100664.46;1749848;81;21492;-39
2021/07/24 06:11:47;;;;;;;44.50;3.37;;;;;;;26.73;51.04;100659.61;1749877;81;20908;-39
2021/07/24 06:14:14;;;;;;;27.75;3.95;;;;;;;26.88;50.93;100664.14;1722132;82;21760;-39
2021/07/24 06:16:41;;;;;;;20.05;2.75;;;;;;;27.00;51.03;100663.08;1722154;82;21400;-39
2021/07/24 06:19:07;;;;;;;21.68;2.83;;;;;;;27.06;50.06;100665.23;1749931;82;20904;-40
2021/07/24 06:21:34;;;;;;;30.15;3.15;;;;;;;26.99;49.86;100667.20;1749617;82;21550;-40
2021/07/24 06:24:01;;;;;;;10.38;2.70;;;;;;;27.01;49.92;100667.92;1749857;82;20912;-39
2021/07/24 06:26:27;;;;;;;13.70;2.70;;;;;;;26.75;50.11;100672.26;1749816;82;21759;-39
2021/07/24 06:28:54;;;;;;;28.27;3.15;;;;;;;26.53;49.46;100672.72;1749827;81;20928;-39
2021/07/24 06:31:20;;;;;;;24.07;3.72;;;;;;;26.48;50.09;100676.25;1749939;82;21609;-39
2021/07/24 06:33:47;;;;;;;23.07;3.02;;;;;;;26.36;50.76;100668.81;1749748;82;20936;-39
2021/07/24 06:36:13;;;;;;;11.12;2.47;;;;;;;26.45;51.95;100673.85;1749909;82;21531;-39
2021/07/24 06:38:41;;;;;;;21.33;3.52;;;;;;;26.39;50.38;100667.23;1749979;82;21206;-39
2021/07/24 06:41:08;;;;;;;34.43;4.03;;;;;;;26.24;51.43;100666.69;1749860;82;21526;-39
2021/07/24 06:43:35;;;;;;;29.85;4.10;;;;;;;26.31;51.81;100669.19;1750077;82;21035;-39
2021/07/24 06:46:16;;;;;;;24.70;3.85;;;;;;;26.50;52.63;100667.17;1745722;81;20969;-39
2021/07/24 06:48:43;;;;;;;35.65;4.33;;;;;;;26.61;52.28;100675.57;1735856;82;20937;-39
2021/07/24 06:51:09;;;;;;;24.02;3.70;;;;;;;26.67;52.47;100668.45;1735886;82;21812;-39
2021/07/24 06:53:36;;;;;;;17.20;3.33;;;;;;;26.66;50.47;100676.52;1735705;82;20909;-38
2021/07/24 06:56:03;;;;;;;17.98;3.70;;;;;;;26.74;51.15;100672.73;1714875;82;21011;-39
2021/07/24 06:58:31;;;;;;;24.75;4.30;;;;;;;26.68;51.33;100670.13;1735834;82;20898;-39
2021/07/24 07:00:59;;;;;;;10.63;3.50;;;;;;;26.65;52.02;100677.02;1715209;82;20949;-38
2021/07/24 07:03:25;;;;;;;17.77;2.92;;;;;;;26.56;49.82;100676.95;1735914;82;21127;-39
2021/07/24 07:05:52;;;;;;;16.30;2.98;;;;;;;26.47;50.84;100677.22;1736027;82;21459;-38
2021/07/24 07:08:19;;;;;;;18.60;3.00;;;;;;;26.56;51.69;100686.23;1735867;82;21522;-39
2021/07/24 07:10:45;;;;;;;16.62;3.20;;;;;;;26.72;51.95;100683.96;1735953;82;21486;-37
2021/07/24 07:13:12;;;;;;;14.87;3.22;;;;;;;26.93;49.90;100682.70;1714915;82;21521;-38
2021/07/24 07:15:38;;;;;;;21.73;3.55;;;;;;;27.05;49.11;100678.63;1735896;82;21899;-38
2021/07/24 07:18:05;;;;;;;13.95;2.90;;;;;;;27.05;49.07;100680.81;1735819;81;20913;-39
2021/07/24 07:20:31;;;;;;;14.15;2.95;;;;;;;27.10;48.17;100685.71;1735912;82;20968;-39
2021/07/24 07:22:58;;;;;;;16.57;2.85;;;;;;;27.09;48.59;100681.37;1735966;82;20945;-39
2021/07/24 07:25:25;;;;;;;14.13;2.75;;;;;;;27.18;50.15;100681.94;1735821;82;20972;-39
2021/07/24 07:27:51;;;;;;;7.67;2.83;;;;;;;27.24;47.38;100676.09;1735902;81;21943;-39
2021/07/24 07:30:18;;;;;;;12.30;2.92;;;;;;;27.22;47.46;100675.85;1736031;81;20886;-39
2021/07/24 07:32:44;;;;;;;9.85;2.45;;;;;;;27.45;48.30;100682.33;1735899;82;20854;-38
2021/07/24 07:35:12;;;;;;;6.10;2.10;;;;;;;27.58;44.70;100676.81;1736342;82;20890;-39
2021/07/24 07:37:50;;;;;;;4.15;2.52;;;;;;;27.54;43.36;100678.92;1714857;82;20972;-40
2021/07/24 07:40:18;;;;;;;11.65;2.62;;;;;;;27.69;45.35;100671.41;1736039;82;21123;-38
2021/07/24 07:42:45;;;;;;;7.37;2.10;;;;;;;27.80;42.03;100675.28;1735921;82;20977;-40
2021/07/24 07:45:12;;;;;;;2.60;2.25;;;;;;;27.65;41.47;100668.17;1736139;82;21059;-40
2021/07/24 07:47:38;;;;;;;6.85;2.10;;;;;;;27.67;43.70;100675.52;1747440;81;21421;-37
2021/07/24 07:50:06;;;;;;;11.88;2.15;;;;;;;27.81;41.41;100672.97;1750117;82;21399;-39
2021/07/24 07:52:33;;;;;;;8.08;2.20;;;;;;;27.94;40.93;100671.90;1722011;82;21902;-38
2021/07/24 07:55:00;;;;;;;9.63;2.37;;;;;;;28.04;39.60;100674.55;1749859;81;20928;-39
2021/07/24 07:57:28;;;;;;;7.95;2.27;;;;;;;28.08;39.27;100672.81;1749885;82;21031;-39
2021/07/24 07:59:55;;;;;;;10.08;2.30;;;;;;;28.42;38.56;100670.77;1750046;82;20960;-38
2021/07/24 08:02:21;;;;;;;2.55;2.10;;;;;;;28.78;38.14;100671.03;1750039;82;21011;-42
2021/07/24 08:04:49;;;;;;;7.95;2.12;;;;;;;28.79;38.55;100674.08;1749709;82;21190;-39
2021/07/24 08:07:17;;;;;;;6.75;2.35;;;;;;;28.81;37.14;100671.63;1749849;81;21012;-39
2021/07/24 08:09:45;;;;;;;7.15;2.40;;;;;;;29.03;38.52;100678.09;1749706;82;21471;-39
2021/07/24 08:12:11;;;;;;;2.17;1.98;;;;;;;29.02;37.75;100671.92;1750242;82;20972;-39
2021/07/24 08:14:38;;;;;;;2.40;2.20;;;;;;;28.84;38.60;100674.48;1749901;82;20955;-39
2021/07/24 08:17:08;;;;;;;11.15;2.50;;;;;;;29.03;36.11;100670.11;1749886;82;20866;-39
2021/07/24 08:19:35;;;;;;;20.23;3.42;;;;;;;29.37;36.18;100666.42;1750035;82;22335;-39
2021/07/24 08:22:02;;;;;;;19.02;2.92;;;;;;;29.47;37.18;100675.75;1749969;82;21443;-39
2021/07/24 08:24:28;;;;;;;11.40;3.17;;;;;;;29.13;37.22;100678.90;1721951;82;21499;-38
2021/07/24 08:26:55;;;;;;;11.15;2.27;;;;;;;29.15;38.80;100676.92;1750023;82;21505;-39
2021/07/24 08:29:22;;;;;;;5.97;2.30;;;;;;;29.47;36.80;100675.75;1722168;82;21004;-39
2021/07/24 08:31:48;;;;;;;6.75;2.27;;;;;;;29.83;39.79;100677.67;1750037;82;20881;-39
2021/07/24 08:34:15;;;;;;;24.75;3.50;;;;;;;29.58;36.91;100676.05;1749936;82;20920;-39
2021/07/24 08:36:41;;;;;;;21.35;3.15;;;;;;;28.92;36.10;100678.59;1749686;82;20968;-39
2021/07/24 08:39:08;;;;;;;3.92;2.35;;;;;;;28.34;38.48;100676.30;1750230;82;20976;-40
2021/07/24 08:41:40;;;;;;;3.75;2.80;;;;;;;27.96;38.82;100677.41;1749955;82;21166;-40
2021/07/24 08:44:07;;;;;;;5.35;2.58;;;;;;;28.02;39.15;100680.02;1750054;82;21487;-39
2021/07/24 08:46:34;;;;;;;8.48;2.37;;;;;;;28.46;38.57;100678.84;1746534;81;20897;-37
2021/07/24 08:49:01;;;;;;;5.28;2.90;;;;;;;28.74;37.37;100685.63;1735924;82;20933;-38
2021/07/24 08:51:27;;;;;;;4.45;2.70;;;;;;;28.57;36.97;100676.53;1739790;81;20972;-39
2021/07/24 08:53:53;;;;;;;5.95;3.00;;;;;;;28.54;36.98;100673.14;1735986;82;21092;-39
2021/07/24 08:56:24;;;;;;;5.00;2.72;;;;;;;28.84;38.01;100674.48;1735898;82;20995;-39
2021/07/24 08:58:49;;;;;;;8.58;2.80;;;;;;;29.11;38.35;100680.39;1735647;82;20922;-39
2021/07/24 09:01:21;;;;;;;2.85;2.65;;;;;;;28.97;37.34;100682.17;1735869;82;20977;-38
2021/07/24 09:03:48;;;;;;;3.77;2.67;;;;;;;28.77;37.44;100676.84;1736196;82;21035;-38
2021/07/24 09:06:21;;;;;;;9.98;2.70;;;;;;;28.66;38.99;100681.82;1736043;81;21140;-39
2021/07/24 09:08:49;;;;;;;10.03;3.08;;;;;;;28.69;37.35;100683.38;1686548;84;20945;-38
2021/07/24 09:11:16;;;;;;;6.28;2.80;;;;;;;28.38;36.97;100679.03;1736187;82;20957;-38
2021/07/24 09:13:42;;;;;;;11.00;3.20;;;;;;;28.43;37.32;100673.80;1735798;82;21730;-40
2021/07/24 09:16:10;;;;;;;7.58;2.87;;;;;;;28.78;36.41;100681.18;1736054;82;20838;-39
2021/07/24 09:18:38;;;;;;;7.83;3.15;;;;;;;29.34;35.67;100679.19;1736046;82;21155;-39
2021/07/24 09:21:05;;;;;;;6.85;3.10;;;;;;;29.91;34.25;100679.56;1714989;82;21000;-39
2021/07/24 09:23:35;;;;;;;6.65;3.02;;;;;;;29.92;33.93;100674.09;1736144;82;20890;-39
2021/07/24 09:26:00;;;;;;;3.30;3.00;;;;;;;29.88;34.67;100679.88;1735745;82;20941;-39
2021/07/24 09:28:27;;;;;;;16.25;3.55;;;;;;;29.88;35.50;100670.53;1735920;82;20996;-38
2021/07/24 09:30:53;;;;;;;8.65;3.42;;;;;;;29.87;33.59;100673.71;1735876;82;21214;-40
2021/07/24 09:33:20;;;;;;;10.25;3.15;;;;;;;29.90;33.91;100673.89;1735952;82;20988;-38
2021/07/24 09:35:54;;;;;;;5.85;3.45;;;;;;;29.79;34.12;100674.45;1735841;81;20882;-39
2021/07/24 09:38:29;;;;;;;11.85;3.22;;;;;;;29.70;35.31;100681.17;1735843;82;21535;-39
2021/07/24 09:40:57;;;;;;;4.53;2.60;;;;;;;29.74;36.30;100683.41;1736035;81;20986;-39
2021/07/24 09:43:40;;;;;;;6.92;2.62;;;;;;;29.14;37.12;100685.91;1715354;82;21045;-40
2021/07/24 09:46:16;;;;;;;3.62;3.27;;;;;;;28.62;39.05;100683.09;1735858;82;20992;-40
2021/07/24 09:48:47;;;;;;;3.50;2.98;;;;;;;28.09;40.52;100688.30;1735839;81;20902;-39
2021/07/24 09:51:15;;;;;;;12.47;3.08;;;;;;;27.68;41.95;100687.02;1735798;81;20989;-39
2021/07/24 09:53:45;;;;;;;7.05;3.40;;;;;;;27.47;42.33;100683.03;1735978;82;21372;-39
2021/07/24 09:56:15;;;;;;;4.92;2.90;;;;;;;27.20;42.34;100684.44;1735868;81;21128;-39
2021/07/24 09:58:45;;;;;;;4.65;2.87;;;;;;;26.98;42.35;100674.32;1735745;81;20873;-40
2021/07/24 10:01:15;;;;;;;11.08;3.05;;;;;;;27.11;44.16;100680.28;1735809;81;20933;-40
2021/07/24 10:03:42;;;;;;;11.57;3.10;;;;;;;27.66;43.89;100677.83;1715086;82;20929;-39
2021/07/24 10:06:12;;;;;;;15.98;3.65;;;;;;;28.27;42.67;100670.34;1735834;82;20970;-39
2021/07/24 10:08:49;;;;;;;75.40;5.70;;;;;;;28.78;41.30;100664.37;1735710;82;21254;-40
2021/07/24 10:11:17;;;;;;;10.25;3.50;;;;;;;29.07;40.19;100666.16;1735736;82;21039;-40
2021/07/24 10:13:45;;;;;;;53.10;4.17;;;;;;;29.09;38.25;100670.86;1735855;82;20937;-38
2021/07/24 10:16:11;;;;;;;40.30;4.25;;;;;;;28.63;39.09;100671.46;1735776;82;20956;-38
2021/07/24 10:18:39;;;;;;;81.28;6.42;;;;;;;28.10;39.42;100670.03;1735821;82;20976;-39
2021/07/24 10:21:06;;;;;;;38.78;5.45;;;;;;;27.61;41.24;100680.53;1677710;82;21115;-40
2021/07/24 10:23:33;;;;;;;11.15;3.02;;;;;;;27.28;42.89;100675.31;1735822;82;20940;-39
2021/07/24 10:26:10;;;;;;;14.18;3.67;;;;;;;26.95;43.49;100674.11;1735701;82;20929;-40
2021/07/24 10:29:13;;;;;;;29.07;4.22;;;;;;;26.68;43.76;100683.40;1735791;82;21063;-41
2021/07/24 10:32:11;;;;;;;50.52;4.85;;;;;;;26.50;43.62;100679.11;1715223;82;20936;-40
2021/07/24 10:34:43;;;;;;;39.20;4.40;;;;;;;26.38;43.78;100676.98;1735834;82;21140;-39
2021/07/24 10:37:41;;;;;;;24.60;3.92;;;;;;;26.37;45.91;100670.50;1710730;82;20909;-40
2021/07/24 10:40:25;;;;;;;10.03;3.15;;;;;;;26.41;44.76;100675.08;1680895;85;20961;-39
2021/07/24 10:42:52;;;;;;;38.50;5.00;;;;;;;26.34;43.99;100670.25;1680840;85;21001;-39
2021/07/24 10:45:45;;;;;;;12.73;3.17;;;;;;;26.33;44.54;100674.37;1680924;85;21015;-39
2021/07/24 10:48:21;;;;;;;26.15;3.80;;;;;;;26.48;44.05;100671.77;1680447;84;21164;-40
2021/07/24 10:51:02;;;;;;;35.85;4.53;;;;;;;26.60;44.10;100676.54;1661269;85;20977;-39
2021/07/24 10:53:28;;;;;;;26.12;3.83;;;;;;;27.17;45.42;100672.28;1661234;85;21020;-40
2021/07/24 10:55:57;;;;;;;23.02;4.78;;;;;;;27.65;42.66;100665.98;1677853;85;20988;-39
2021/07/24 10:58:25;;;;;;;15.40;3.30;;;;;;;27.67;42.90;100668.05;1681021;85;20909;-39
2021/07/24 11:03:41;;;;;;;15.72;3.85;;;;;;;27.43;43.66;100669.19;1798323;79;22690;-38
2021/07/24 11:06:30;;;;;;;9.40;3.45;;;;;;;27.32;42.34;100674.11;1758035;80;20900;-40
2021/07/24 11:09:15;;;;;;;58.87;6.80;;;;;;;26.92;43.56;100671.72;1758018;81;21832;-40
2021/07/24 11:11:43;;;;;;;12.05;3.42;;;;;;;26.67;44.56;100673.75;1724685;83;20888;-39
2021/07/24 11:14:31;;;;;;;14.85;4.03;;;;;;;26.53;45.27;100674.05;1724603;83;20935;-39
2021/07/24 11:17:14;;;;;;;9.15;3.52;;;;;;;26.39;45.94;100670.71;1722326;83;20975;-40
2021/07/24 11:19:47;;;;;;;25.95;4.28;;;;;;;26.37;47.29;100668.67;1695819;83;21095;-39
2021/07/24 11:22:24;;;;;;;8.58;3.27;;;;;;;26.36;44.62;100666.16;1715764;83;21135;-39
2021/07/24 11:24:56;;;;;;;13.20;3.33;;;;;;;26.35;45.16;100669.28;1724515;83;20868;-38
2021/07/24 11:27:33;;;;;;;19.00;3.37;;;;;;;26.47;46.52;100667.43;1724501;83;20971;-40